sensor_id;sensor_type;location;lat;lon;timestamp;P1;durP1;ratioP1;P2;durP2;ratioP2
56201;SDS011;42117;50.360;3.508;2023-05-15T00:00:34;24.05;;;14.48;;
56201;SDS011;42117;50.360;3.508;2023-05-15T00:03:01;24.95;;;14.55;;
56201;SDS011;42117;50.360;3.508;2023-05-15T00:05:27;20.25;;;13.88;;
56201;SDS011;42117;50.360;3.508;2023-05-15T00:07:53;21.50;;;14.50;;
56201;SDS011;42117;50.360;3.508;2023-05-15T00:10:19;26.52;;;15.32;;
56201;SDS011;42117;50.360;3.508;2023-05-15T00:12:45;21.08;;;14.45;;
56201;SDS011;42117;50.360;3.508;2023-05-15T00:15:11;23.90;;;15.60;;
56201;SDS011;42117;50.360;3.508;2023-05-15T00:17:37;23.88;;;14.65;;
56201;SDS011;42117;50.360;3.508;2023-05-15T00:20:03;22.90;;;13.95;;
56201;SDS011;42117;50.360;3.508;2023-05-15T00:22:31;24.58;;;14.57;;
56201;SDS011;42117;50.360;3.508;2023-05-15T00:24:57;22.38;;;15.57;;
56201;SDS011;42117;50.360;3.508;2023-05-15T00:27:23;23.90;;;14.23;;
56201;SDS011;42117;50.360;3.508;2023-05-15T00:29:50;24.48;;;15.38;;
56201;SDS011;42117;50.360;3.508;2023-05-15T00:32:16;25.25;;;16.17;;
56201;SDS011;42117;50.360;3.508;2023-05-15T00:34:42;29.30;;;17.35;;
56201;SDS011;42117;50.360;3.508;2023-05-15T00:37:08;26.15;;;16.45;;
56201;SDS011;42117;50.360;3.508;2023-05-15T00:39:35;28.90;;;17.92;;
56201;SDS011;42117;50.360;3.508;2023-05-15T00:42:01;29.70;;;17.77;;
56201;SDS011;42117;50.360;3.508;2023-05-15T00:44:29;29.83;;;16.60;;
56201;SDS011;42117;50.360;3.508;2023-05-15T00:46:56;26.08;;;16.00;;
56201;SDS011;42117;50.360;3.508;2023-05-15T00:49:22;26.77;;;15.93;;
56201;SDS011;42117;50.360;3.508;2023-05-15T00:51:50;24.50;;;15.80;;
56201;SDS011;42117;50.360;3.508;2023-05-15T00:54:17;30.55;;;17.90;;
56201;SDS011;42117;50.360;3.508;2023-05-15T00:56:43;26.15;;;16.65;;
56201;SDS011;42117;50.360;3.508;2023-05-15T00:59:10;27.90;;;16.65;;
56201;SDS011;42117;50.360;3.508;2023-05-15T01:01:37;27.98;;;16.08;;
56201;SDS011;42117;50.360;3.508;2023-05-15T01:04:03;27.63;;;15.43;;
56201;SDS011;42117;50.360;3.508;2023-05-15T01:06:30;28.63;;;17.30;;
56201;SDS011;42117;50.360;3.508;2023-05-15T01:08:56;25.30;;;16.42;;
56201;SDS011;42117;50.360;3.508;2023-05-15T01:11:26;27.55;;;16.60;;
56201;SDS011;42117;50.360;3.508;2023-05-15T01:13:59;29.27;;;16.10;;
56201;SDS011;42117;50.360;3.508;2023-05-15T01:16:26;26.08;;;16.38;;
56201;SDS011;42117;50.360;3.508;2023-05-15T01:18:52;26.48;;;16.55;;
56201;SDS011;42117;50.360;3.508;2023-05-15T01:28:57;26.65;;;16.92;;
56201;SDS011;42117;50.360;3.508;2023-05-15T01:31:24;27.25;;;17.08;;
56201;SDS011;42117;50.360;3.508;2023-05-15T01:33:53;32.22;;;19.40;;
56201;SDS011;42117;50.360;3.508;2023-05-15T01:36:23;34.25;;;18.90;;
56201;SDS011;42117;50.360;3.508;2023-05-15T01:38:52;30.90;;;19.15;;
56201;SDS011;42117;50.360;3.508;2023-05-15T01:41:21;28.17;;;18.67;;
56201;SDS011;42117;50.360;3.508;2023-05-15T01:43:51;27.42;;;17.77;;
56201;SDS011;42117;50.360;3.508;2023-05-15T01:46:19;30.92;;;18.25;;
56201;SDS011;42117;50.360;3.508;2023-05-15T01:48:46;32.55;;;17.13;;
56201;SDS011;42117;50.360;3.508;2023-05-15T01:51:14;30.55;;;17.63;;
56201;SDS011;42117;50.360;3.508;2023-05-15T01:53:41;31.17;;;18.23;;
56201;SDS011;42117;50.360;3.508;2023-05-15T01:56:08;26.23;;;15.20;;
56201;SDS011;42117;50.360;3.508;2023-05-15T01:58:35;31.08;;;17.98;;
56201;SDS011;42117;50.360;3.508;2023-05-15T02:01:02;31.38;;;16.30;;
56201;SDS011;42117;50.360;3.508;2023-05-15T02:03:29;25.55;;;11.77;;
56201;SDS011;42117;50.360;3.508;2023-05-15T02:05:58;38.17;;;18.83;;
56201;SDS011;42117;50.360;3.508;2023-05-15T02:08:24;43.53;;;21.70;;
56201;SDS011;42117;50.360;3.508;2023-05-15T02:10:53;52.55;;;23.52;;
56201;SDS011;42117;50.360;3.508;2023-05-15T02:13:19;48.25;;;23.38;;
56201;SDS011;42117;50.360;3.508;2023-05-15T02:15:46;53.58;;;23.55;;
56201;SDS011;42117;50.360;3.508;2023-05-15T02:18:12;57.28;;;23.77;;
56201;SDS011;42117;50.360;3.508;2023-05-15T02:20:38;51.80;;;22.58;;
56201;SDS011;42117;50.360;3.508;2023-05-15T02:23:04;63.90;;;25.52;;
56201;SDS011;42117;50.360;3.508;2023-05-15T02:25:37;54.85;;;24.85;;
56201;SDS011;42117;50.360;3.508;2023-05-15T02:28:04;52.50;;;23.20;;
56201;SDS011;42117;50.360;3.508;2023-05-15T02:30:34;54.75;;;23.45;;
56201;SDS011;42117;50.360;3.508;2023-05-15T02:33:14;54.53;;;22.83;;
56201;SDS011;42117;50.360;3.508;2023-05-15T02:35:56;63.50;;;24.65;;
56201;SDS011;42117;50.360;3.508;2023-05-15T02:38:34;49.30;;;19.88;;
56201;SDS011;42117;50.360;3.508;2023-05-15T02:41:01;61.88;;;26.92;;
56201;SDS011;42117;50.360;3.508;2023-05-15T02:43:28;62.08;;;26.40;;
56201;SDS011;42117;50.360;3.508;2023-05-15T02:45:55;59.75;;;26.35;;
56201;SDS011;42117;50.360;3.508;2023-05-15T02:48:21;64.50;;;26.50;;
56201;SDS011;42117;50.360;3.508;2023-05-15T02:50:47;58.53;;;26.83;;
56201;SDS011;42117;50.360;3.508;2023-05-15T02:53:13;58.80;;;25.50;;
56201;SDS011;42117;50.360;3.508;2023-05-15T02:55:40;68.25;;;26.95;;
56201;SDS011;42117;50.360;3.508;2023-05-15T02:58:06;57.63;;;26.02;;
56201;SDS011;42117;50.360;3.508;2023-05-15T03:00:32;63.15;;;26.90;;
56201;SDS011;42117;50.360;3.508;2023-05-15T03:02:58;58.20;;;25.90;;
56201;SDS011;42117;50.360;3.508;2023-05-15T03:05:24;70.30;;;28.88;;
56201;SDS011;42117;50.360;3.508;2023-05-15T03:07:50;71.43;;;30.43;;
56201;SDS011;42117;50.360;3.508;2023-05-15T03:10:16;73.07;;;29.45;;
56201;SDS011;42117;50.360;3.508;2023-05-15T03:12:42;72.50;;;30.30;;
56201;SDS011;42117;50.360;3.508;2023-05-15T03:15:08;77.97;;;31.25;;
56201;SDS011;42117;50.360;3.508;2023-05-15T03:17:34;77.13;;;29.98;;
56201;SDS011;42117;50.360;3.508;2023-05-15T03:20:00;81.00;;;33.45;;
56201;SDS011;42117;50.360;3.508;2023-05-15T03:22:26;84.15;;;33.70;;
56201;SDS011;42117;50.360;3.508;2023-05-15T03:24:52;86.85;;;34.05;;
56201;SDS011;42117;50.360;3.508;2023-05-15T03:27:18;90.97;;;32.25;;
56201;SDS011;42117;50.360;3.508;2023-05-15T03:29:44;85.55;;;32.58;;
56201;SDS011;42117;50.360;3.508;2023-05-15T03:32:13;91.07;;;33.20;;
56201;SDS011;42117;50.360;3.508;2023-05-15T03:34:39;88.23;;;33.83;;
56201;SDS011;42117;50.360;3.508;2023-05-15T03:37:05;88.87;;;35.17;;
56201;SDS011;42117;50.360;3.508;2023-05-15T03:39:31;95.13;;;36.03;;
56201;SDS011;42117;50.360;3.508;2023-05-15T03:41:57;87.77;;;34.93;;
56201;SDS011;42117;50.360;3.508;2023-05-15T03:44:23;72.13;;;30.57;;
56201;SDS011;42117;50.360;3.508;2023-05-15T03:46:49;73.73;;;29.80;;
56201;SDS011;42117;50.360;3.508;2023-05-15T03:49:15;77.47;;;31.70;;
56201;SDS011;42117;50.360;3.508;2023-05-15T03:51:41;66.25;;;27.83;;
56201;SDS011;42117;50.360;3.508;2023-05-15T03:54:07;66.20;;;27.60;;
56201;SDS011;42117;50.360;3.508;2023-05-15T03:56:33;69.90;;;30.50;;
56201;SDS011;42117;50.360;3.508;2023-05-15T03:58:59;69.43;;;30.25;;
56201;SDS011;42117;50.360;3.508;2023-05-15T04:01:25;74.03;;;30.08;;
56201;SDS011;42117;50.360;3.508;2023-05-15T04:03:51;70.47;;;30.60;;
56201;SDS011;42117;50.360;3.508;2023-05-15T04:06:17;52.40;;;24.45;;
56201;SDS011;42117;50.360;3.508;2023-05-15T04:08:43;62.90;;;26.17;;
56201;SDS011;42117;50.360;3.508;2023-05-15T04:11:09;53.88;;;21.13;;
56201;SDS011;42117;50.360;3.508;2023-05-15T04:13:36;56.05;;;24.65;;
56201;SDS011;42117;50.360;3.508;2023-05-15T04:16:02;68.57;;;24.88;;
56201;SDS011;42117;50.360;3.508;2023-05-15T04:18:28;60.25;;;22.30;;
56201;SDS011;42117;50.360;3.508;2023-05-15T04:20:54;58.23;;;24.50;;
56201;SDS011;42117;50.360;3.508;2023-05-15T04:23:20;61.77;;;22.70;;
56201;SDS011;42117;50.360;3.508;2023-05-15T04:25:46;57.67;;;24.70;;
56201;SDS011;42117;50.360;3.508;2023-05-15T04:28:12;62.55;;;26.48;;
56201;SDS011;42117;50.360;3.508;2023-05-15T04:30:39;62.78;;;26.83;;
56201;SDS011;42117;50.360;3.508;2023-05-15T04:33:05;58.70;;;23.47;;
56201;SDS011;42117;50.360;3.508;2023-05-15T04:35:31;62.75;;;25.17;;
56201;SDS011;42117;50.360;3.508;2023-05-15T04:37:57;49.92;;;19.23;;
56201;SDS011;42117;50.360;3.508;2023-05-15T04:40:23;48.88;;;17.05;;
56201;SDS011;42117;50.360;3.508;2023-05-15T04:42:49;49.92;;;20.20;;
56201;SDS011;42117;50.360;3.508;2023-05-15T04:45:15;49.88;;;22.02;;
56201;SDS011;42117;50.360;3.508;2023-05-15T04:47:41;48.58;;;19.52;;
56201;SDS011;42117;50.360;3.508;2023-05-15T04:50:07;51.30;;;20.35;;
56201;SDS011;42117;50.360;3.508;2023-05-15T04:52:33;55.57;;;21.97;;
56201;SDS011;42117;50.360;3.508;2023-05-15T04:54:59;51.33;;;19.47;;
56201;SDS011;42117;50.360;3.508;2023-05-15T04:57:25;35.45;;;15.07;;
56201;SDS011;42117;50.360;3.508;2023-05-15T04:59:52;48.13;;;19.27;;
56201;SDS011;42117;50.360;3.508;2023-05-15T05:02:21;44.13;;;18.30;;
56201;SDS011;42117;50.360;3.508;2023-05-15T05:04:47;55.97;;;21.45;;
56201;SDS011;42117;50.360;3.508;2023-05-15T05:07:13;59.17;;;21.17;;
56201;SDS011;42117;50.360;3.508;2023-05-15T05:09:39;51.60;;;20.67;;
56201;SDS011;42117;50.360;3.508;2023-05-15T05:12:06;56.28;;;21.35;;
56201;SDS011;42117;50.360;3.508;2023-05-15T05:14:33;48.53;;;21.00;;
56201;SDS011;42117;50.360;3.508;2023-05-15T05:16:59;42.43;;;18.13;;
56201;SDS011;42117;50.360;3.508;2023-05-15T05:19:25;54.90;;;20.80;;
56201;SDS011;42117;50.360;3.508;2023-05-15T05:21:52;32.37;;;13.03;;
56201;SDS011;42117;50.360;3.508;2023-05-15T05:24:18;62.85;;;21.25;;
56201;SDS011;42117;50.360;3.508;2023-05-15T05:26:44;62.03;;;22.67;;
56201;SDS011;42117;50.360;3.508;2023-05-15T05:29:10;40.03;;;17.73;;
56201;SDS011;42117;50.360;3.508;2023-05-15T05:31:36;45.53;;;17.65;;
56201;SDS011;42117;50.360;3.508;2023-05-15T05:34:02;43.07;;;18.13;;
56201;SDS011;42117;50.360;3.508;2023-05-15T05:36:28;48.43;;;18.93;;
56201;SDS011;42117;50.360;3.508;2023-05-15T05:38:54;58.07;;;20.50;;
56201;SDS011;42117;50.360;3.508;2023-05-15T05:41:20;36.33;;;15.60;;
56201;SDS011;42117;50.360;3.508;2023-05-15T05:43:47;57.15;;;21.27;;
56201;SDS011;42117;50.360;3.508;2023-05-15T05:46:13;43.63;;;17.48;;
56201;SDS011;42117;50.360;3.508;2023-05-15T05:48:39;48.35;;;19.42;;
56201;SDS011;42117;50.360;3.508;2023-05-15T05:51:05;33.35;;;13.45;;
56201;SDS011;42117;50.360;3.508;2023-05-15T05:53:31;49.42;;;20.40;;
56201;SDS011;42117;50.360;3.508;2023-05-15T05:55:57;46.30;;;19.42;;
56201;SDS011;42117;50.360;3.508;2023-05-15T05:58:23;50.75;;;18.55;;
56201;SDS011;42117;50.360;3.508;2023-05-15T06:00:49;50.50;;;19.45;;
56201;SDS011;42117;50.360;3.508;2023-05-15T06:03:15;50.67;;;17.30;;
56201;SDS011;42117;50.360;3.508;2023-05-15T06:05:41;40.38;;;15.68;;
56201;SDS011;42117;50.360;3.508;2023-05-15T06:08:07;30.67;;;13.43;;
56201;SDS011;42117;50.360;3.508;2023-05-15T06:10:33;45.85;;;17.15;;
56201;SDS011;42117;50.360;3.508;2023-05-15T06:12:59;48.90;;;18.40;;
56201;SDS011;42117;50.360;3.508;2023-05-15T06:15:25;35.72;;;15.90;;
56201;SDS011;42117;50.360;3.508;2023-05-15T06:17:51;42.95;;;17.63;;
56201;SDS011;42117;50.360;3.508;2023-05-15T06:20:17;51.10;;;18.83;;
56201;SDS011;42117;50.360;3.508;2023-05-15T06:22:43;50.10;;;19.33;;
56201;SDS011;42117;50.360;3.508;2023-05-15T06:25:09;51.15;;;19.40;;
56201;SDS011;42117;50.360;3.508;2023-05-15T06:27:41;53.10;;;17.45;;
56201;SDS011;42117;50.360;3.508;2023-05-15T06:30:08;42.97;;;18.13;;
56201;SDS011;42117;50.360;3.508;2023-05-15T06:32:34;35.95;;;15.80;;
56201;SDS011;42117;50.360;3.508;2023-05-15T06:35:00;40.97;;;19.80;;
56201;SDS011;42117;50.360;3.508;2023-05-15T06:37:26;43.17;;;17.97;;
56201;SDS011;42117;50.360;3.508;2023-05-15T06:39:53;43.08;;;17.85;;
56201;SDS011;42117;50.360;3.508;2023-05-15T06:42:20;47.10;;;18.63;;
56201;SDS011;42117;50.360;3.508;2023-05-15T06:44:46;44.15;;;17.67;;
56201;SDS011;42117;50.360;3.508;2023-05-15T06:47:13;44.20;;;18.27;;
56201;SDS011;42117;50.360;3.508;2023-05-15T06:49:39;44.63;;;17.87;;
56201;SDS011;42117;50.360;3.508;2023-05-15T06:52:05;32.50;;;15.07;;
56201;SDS011;42117;50.360;3.508;2023-05-15T06:54:31;41.75;;;17.20;;
56201;SDS011;42117;50.360;3.508;2023-05-15T06:56:57;47.78;;;20.05;;
56201;SDS011;42117;50.360;3.508;2023-05-15T06:59:23;51.50;;;19.63;;
56201;SDS011;42117;50.360;3.508;2023-05-15T07:01:50;47.40;;;20.73;;
56201;SDS011;42117;50.360;3.508;2023-05-15T07:04:16;50.10;;;19.55;;
56201;SDS011;42117;50.360;3.508;2023-05-15T07:06:42;43.35;;;18.40;;
56201;SDS011;42117;50.360;3.508;2023-05-15T07:09:08;47.97;;;19.98;;
56201;SDS011;42117;50.360;3.508;2023-05-15T07:11:34;52.50;;;19.10;;
56201;SDS011;42117;50.360;3.508;2023-05-15T07:14:02;52.42;;;21.08;;
56201;SDS011;42117;50.360;3.508;2023-05-15T07:16:29;52.72;;;21.23;;
56201;SDS011;42117;50.360;3.508;2023-05-15T07:18:55;58.25;;;21.70;;
56201;SDS011;42117;50.360;3.508;2023-05-15T07:21:21;60.20;;;22.15;;
56201;SDS011;42117;50.360;3.508;2023-05-15T07:23:47;47.83;;;20.55;;
56201;SDS011;42117;50.360;3.508;2023-05-15T07:26:13;50.40;;;21.25;;
56201;SDS011;42117;50.360;3.508;2023-05-15T07:28:39;48.72;;;21.50;;
56201;SDS011;42117;50.360;3.508;2023-05-15T07:31:06;44.97;;;19.88;;
56201;SDS011;42117;50.360;3.508;2023-05-15T07:33:32;48.55;;;19.35;;
56201;SDS011;42117;50.360;3.508;2023-05-15T07:35:58;46.10;;;18.67;;
56201;SDS011;42117;50.360;3.508;2023-05-15T07:38:24;37.92;;;15.32;;
56201;SDS011;42117;50.360;3.508;2023-05-15T07:40:50;47.40;;;20.30;;
56201;SDS011;42117;50.360;3.508;2023-05-15T07:43:16;43.70;;;19.90;;
56201;SDS011;42117;50.360;3.508;2023-05-15T07:45:42;42.53;;;18.85;;
56201;SDS011;42117;50.360;3.508;2023-05-15T07:48:12;46.20;;;19.70;;
56201;SDS011;42117;50.360;3.508;2023-05-15T07:50:38;48.17;;;20.17;;
56201;SDS011;42117;50.360;3.508;2023-05-15T07:53:04;51.53;;;20.60;;
56201;SDS011;42117;50.360;3.508;2023-05-15T07:55:30;46.45;;;19.98;;
56201;SDS011;42117;50.360;3.508;2023-05-15T07:57:56;45.30;;;19.80;;
56201;SDS011;42117;50.360;3.508;2023-05-15T08:00:22;48.20;;;19.60;;
56201;SDS011;42117;50.360;3.508;2023-05-15T08:02:49;48.47;;;20.03;;
56201;SDS011;42117;50.360;3.508;2023-05-15T08:05:15;44.60;;;18.25;;
56201;SDS011;42117;50.360;3.508;2023-05-15T08:07:41;44.25;;;19.02;;
56201;SDS011;42117;50.360;3.508;2023-05-15T08:10:07;43.80;;;18.13;;
56201;SDS011;42117;50.360;3.508;2023-05-15T08:12:33;42.58;;;17.60;;
56201;SDS011;42117;50.360;3.508;2023-05-15T08:14:59;39.97;;;16.92;;
56201;SDS011;42117;50.360;3.508;2023-05-15T08:17:25;36.30;;;15.77;;
56201;SDS011;42117;50.360;3.508;2023-05-15T08:19:51;42.42;;;16.55;;
56201;SDS011;42117;50.360;3.508;2023-05-15T08:22:18;40.00;;;16.43;;
56201;SDS011;42117;50.360;3.508;2023-05-15T08:24:44;37.87;;;15.77;;
56201;SDS011;42117;50.360;3.508;2023-05-15T08:27:10;46.40;;;17.50;;
56201;SDS011;42117;50.360;3.508;2023-05-15T08:29:36;34.00;;;13.93;;
56201;SDS011;42117;50.360;3.508;2023-05-15T08:32:03;38.63;;;16.33;;
56201;SDS011;42117;50.360;3.508;2023-05-15T08:34:29;43.90;;;17.83;;
56201;SDS011;42117;50.360;3.508;2023-05-15T08:36:55;44.37;;;16.93;;
56201;SDS011;42117;50.360;3.508;2023-05-15T08:39:21;44.63;;;18.17;;
56201;SDS011;42117;50.360;3.508;2023-05-15T08:44:25;39.70;;;15.30;;
56201;SDS011;42117;50.360;3.508;2023-05-15T08:46:52;47.30;;;16.08;;
56201;SDS011;42117;50.360;3.508;2023-05-15T08:51:56;39.53;;;16.05;;
56201;SDS011;42117;50.360;3.508;2023-05-15T08:54:22;45.17;;;16.17;;
56201;SDS011;42117;50.360;3.508;2023-05-15T08:56:49;38.57;;;15.30;;
56201;SDS011;42117;50.360;3.508;2023-05-15T08:59:15;49.83;;;16.63;;
56201;SDS011;42117;50.360;3.508;2023-05-15T09:01:41;51.60;;;16.47;;
56201;SDS011;42117;50.360;3.508;2023-05-15T09:04:07;52.10;;;17.65;;
56201;SDS011;42117;50.360;3.508;2023-05-15T09:06:33;47.28;;;16.95;;
56201;SDS011;42117;50.360;3.508;2023-05-15T09:09:00;46.63;;;16.75;;
56201;SDS011;42117;50.360;3.508;2023-05-15T09:11:28;47.88;;;17.15;;
56201;SDS011;42117;50.360;3.508;2023-05-15T09:13:58;40.33;;;15.00;;
56201;SDS011;42117;50.360;3.508;2023-05-15T09:16:24;43.08;;;16.33;;
56201;SDS011;42117;50.360;3.508;2023-05-15T09:18:51;37.22;;;13.48;;
56201;SDS011;42117;50.360;3.508;2023-05-15T09:21:21;48.67;;;16.03;;
56201;SDS011;42117;50.360;3.508;2023-05-15T09:23:48;44.35;;;16.50;;
56201;SDS011;42117;50.360;3.508;2023-05-15T09:26:14;41.17;;;15.07;;
56201;SDS011;42117;50.360;3.508;2023-05-15T09:28:40;39.42;;;14.35;;
56201;SDS011;42117;50.360;3.508;2023-05-15T09:31:06;33.38;;;14.23;;
56201;SDS011;42117;50.360;3.508;2023-05-15T09:33:34;42.20;;;16.30;;
56201;SDS011;42117;50.360;3.508;2023-05-15T09:36:01;38.85;;;15.00;;
56201;SDS011;42117;50.360;3.508;2023-05-15T09:38:27;36.22;;;14.20;;
56201;SDS011;42117;50.360;3.508;2023-05-15T09:41:01;37.85;;;14.70;;
56201;SDS011;42117;50.360;3.508;2023-05-15T09:43:28;38.45;;;16.02;;
56201;SDS011;42117;50.360;3.508;2023-05-15T09:45:54;41.33;;;15.55;;
56201;SDS011;42117;50.360;3.508;2023-05-15T09:48:21;34.47;;;13.13;;
56201;SDS011;42117;50.360;3.508;2023-05-15T09:50:47;43.58;;;16.80;;
56201;SDS011;42117;50.360;3.508;2023-05-15T09:53:13;34.42;;;13.98;;
56201;SDS011;42117;50.360;3.508;2023-05-15T09:55:40;32.50;;;13.95;;
56201;SDS011;42117;50.360;3.508;2023-05-15T09:58:07;26.45;;;12.27;;
56201;SDS011;42117;50.360;3.508;2023-05-15T10:00:34;23.00;;;11.23;;
56201;SDS011;42117;50.360;3.508;2023-05-15T10:03:03;28.30;;;11.73;;
56201;SDS011;42117;50.360;3.508;2023-05-15T10:05:30;23.80;;;11.13;;
56201;SDS011;42117;50.360;3.508;2023-05-15T10:07:56;20.23;;;10.38;;
56201;SDS011;42117;50.360;3.508;2023-05-15T10:10:23;21.50;;;10.23;;
56201;SDS011;42117;50.360;3.508;2023-05-15T10:12:49;20.67;;;10.07;;
56201;SDS011;42117;50.360;3.508;2023-05-15T10:15:16;17.25;;;9.10;;
56201;SDS011;42117;50.360;3.508;2023-05-15T10:17:43;23.00;;;11.10;;
56201;SDS011;42117;50.360;3.508;2023-05-15T10:20:10;17.75;;;9.70;;
56201;SDS011;42117;50.360;3.508;2023-05-15T10:22:37;17.58;;;9.48;;
56201;SDS011;42117;50.360;3.508;2023-05-15T10:25:08;16.42;;;8.50;;
56201;SDS011;42117;50.360;3.508;2023-05-15T10:27:38;16.38;;;8.98;;
56201;SDS011;42117;50.360;3.508;2023-05-15T10:30:05;20.23;;;10.05;;
56201;SDS011;42117;50.360;3.508;2023-05-15T10:32:32;19.77;;;10.38;;
56201;SDS011;42117;50.360;3.508;2023-05-15T10:34:58;16.38;;;7.85;;
56201;SDS011;42117;50.360;3.508;2023-05-15T10:37:25;16.95;;;8.45;;
56201;SDS011;42117;50.360;3.508;2023-05-15T10:39:52;22.27;;;10.40;;
56201;SDS011;42117;50.360;3.508;2023-05-15T10:42:19;17.97;;;9.77;;
56201;SDS011;42117;50.360;3.508;2023-05-15T10:44:46;20.70;;;9.32;;
56201;SDS011;42117;50.360;3.508;2023-05-15T10:47:12;20.85;;;9.68;;
56201;SDS011;42117;50.360;3.508;2023-05-15T10:49:38;16.27;;;9.18;;
56201;SDS011;42117;50.360;3.508;2023-05-15T10:52:05;16.75;;;8.55;;
56201;SDS011;42117;50.360;3.508;2023-05-15T10:54:31;26.48;;;12.32;;
56201;SDS011;42117;50.360;3.508;2023-05-15T10:56:57;34.70;;;13.30;;
56201;SDS011;42117;50.360;3.508;2023-05-15T10:59:30;29.38;;;13.75;;
56201;SDS011;42117;50.360;3.508;2023-05-15T11:01:56;32.55;;;14.40;;
56201;SDS011;42117;50.360;3.508;2023-05-15T11:04:22;29.30;;;13.55;;
56201;SDS011;42117;50.360;3.508;2023-05-15T11:06:50;27.73;;;12.67;;
56201;SDS011;42117;50.360;3.508;2023-05-15T11:09:36;31.38;;;14.05;;
56201;SDS011;42117;50.360;3.508;2023-05-15T11:12:08;27.45;;;12.00;;
56201;SDS011;42117;50.360;3.508;2023-05-15T11:14:39;26.23;;;12.15;;
56201;SDS011;42117;50.360;3.508;2023-05-15T11:17:06;22.17;;;10.73;;
56201;SDS011;42117;50.360;3.508;2023-05-15T11:19:53;17.90;;;9.60;;
56201;SDS011;42117;50.360;3.508;2023-05-15T11:22:25;17.27;;;8.80;;
56201;SDS011;42117;50.360;3.508;2023-05-15T11:27:21;20.40;;;9.32;;
56201;SDS011;42117;50.360;3.508;2023-05-15T11:37:52;17.08;;;9.48;;
56201;SDS011;42117;50.360;3.508;2023-05-15T11:40:19;17.42;;;8.88;;
56201;SDS011;42117;50.360;3.508;2023-05-15T11:45:28;19.33;;;9.63;;
56201;SDS011;42117;50.360;3.508;2023-05-15T11:47:55;22.58;;;10.63;;
56201;SDS011;42117;50.360;3.508;2023-05-15T11:50:21;21.58;;;9.85;;
56201;SDS011;42117;50.360;3.508;2023-05-15T11:52:48;19.92;;;9.02;;
56201;SDS011;42117;50.360;3.508;2023-05-15T11:55:14;19.63;;;9.30;;
56201;SDS011;42117;50.360;3.508;2023-05-15T11:57:40;15.70;;;8.88;;
56201;SDS011;42117;50.360;3.508;2023-05-15T12:00:07;16.45;;;8.30;;
56201;SDS011;42117;50.360;3.508;2023-05-15T12:02:34;15.97;;;8.37;;
56201;SDS011;42117;50.360;3.508;2023-05-15T12:05:00;17.00;;;8.45;;
56201;SDS011;42117;50.360;3.508;2023-05-15T12:07:26;16.27;;;8.07;;
56201;SDS011;42117;50.360;3.508;2023-05-15T12:09:52;16.38;;;8.48;;
56201;SDS011;42117;50.360;3.508;2023-05-15T12:12:19;17.63;;;8.70;;
56201;SDS011;42117;50.360;3.508;2023-05-15T12:14:45;18.77;;;9.38;;
56201;SDS011;42117;50.360;3.508;2023-05-15T12:17:11;16.15;;;9.07;;
56201;SDS011;42117;50.360;3.508;2023-05-15T12:19:37;20.20;;;8.95;;
56201;SDS011;42117;50.360;3.508;2023-05-15T12:22:03;19.58;;;9.07;;
56201;SDS011;42117;50.360;3.508;2023-05-15T12:24:30;18.25;;;8.77;;
56201;SDS011;42117;50.360;3.508;2023-05-15T12:26:56;20.70;;;10.40;;
56201;SDS011;42117;50.360;3.508;2023-05-15T12:29:23;20.60;;;10.32;;
56201;SDS011;42117;50.360;3.508;2023-05-15T12:31:50;20.38;;;10.10;;
56201;SDS011;42117;50.360;3.508;2023-05-15T12:34:18;18.35;;;10.45;;
56201;SDS011;42117;50.360;3.508;2023-05-15T12:36:44;18.13;;;9.15;;
56201;SDS011;42117;50.360;3.508;2023-05-15T12:39:10;21.63;;;9.60;;
56201;SDS011;42117;50.360;3.508;2023-05-15T12:41:36;18.35;;;9.13;;
56201;SDS011;42117;50.360;3.508;2023-05-15T12:44:03;16.85;;;9.55;;
56201;SDS011;42117;50.360;3.508;2023-05-15T12:46:30;19.60;;;9.40;;
56201;SDS011;42117;50.360;3.508;2023-05-15T12:48:57;17.03;;;9.43;;
56201;SDS011;42117;50.360;3.508;2023-05-15T12:51:23;20.90;;;10.07;;
56201;SDS011;42117;50.360;3.508;2023-05-15T12:53:52;18.17;;;9.30;;
56201;SDS011;42117;50.360;3.508;2023-05-15T12:56:18;17.23;;;8.98;;
56201;SDS011;42117;50.360;3.508;2023-05-15T12:58:46;13.63;;;7.90;;
56201;SDS011;42117;50.360;3.508;2023-05-15T13:01:12;16.10;;;8.43;;
56201;SDS011;42117;50.360;3.508;2023-05-15T13:03:40;12.15;;;6.13;;
56201;SDS011;42117;50.360;3.508;2023-05-15T13:06:07;5.88;;;3.15;;
56201;SDS011;42117;50.360;3.508;2023-05-15T13:08:38;4.18;;;2.85;;
56201;SDS011;42117;50.360;3.508;2023-05-15T13:11:04;3.55;;;3.25;;
56201;SDS011;42117;50.360;3.508;2023-05-15T13:13:40;3.80;;;3.40;;
56201;SDS011;42117;50.360;3.508;2023-05-15T13:16:16;3.13;;;2.78;;
56201;SDS011;42117;50.360;3.508;2023-05-15T13:18:42;3.10;;;2.67;;
56201;SDS011;42117;50.360;3.508;2023-05-15T13:21:08;4.97;;;2.83;;
56201;SDS011;42117;50.360;3.508;2023-05-15T13:23:34;3.00;;;2.70;;
56201;SDS011;42117;50.360;3.508;2023-05-15T13:26:00;3.53;;;3.00;;
56201;SDS011;42117;50.360;3.508;2023-05-15T13:28:26;2.78;;;2.60;;
56201;SDS011;42117;50.360;3.508;2023-05-15T13:30:52;3.53;;;2.80;;
56201;SDS011;42117;50.360;3.508;2023-05-15T13:33:18;3.78;;;2.75;;
56201;SDS011;42117;50.360;3.508;2023-05-15T13:35:44;2.97;;;2.38;;
56201;SDS011;42117;50.360;3.508;2023-05-15T13:38:10;3.88;;;2.78;;
56201;SDS011;42117;50.360;3.508;2023-05-15T13:40:36;3.10;;;2.88;;
56201;SDS011;42117;50.360;3.508;2023-05-15T13:43:02;3.83;;;2.90;;
56201;SDS011;42117;50.360;3.508;2023-05-15T13:45:30;3.42;;;2.97;;
56201;SDS011;42117;50.360;3.508;2023-05-15T13:47:56;5.20;;;3.13;;
56201;SDS011;42117;50.360;3.508;2023-05-15T13:50:22;2.97;;;2.67;;
56201;SDS011;42117;50.360;3.508;2023-05-15T13:52:48;2.67;;;2.47;;
56201;SDS011;42117;50.360;3.508;2023-05-15T13:55:14;4.57;;;2.97;;
56201;SDS011;42117;50.360;3.508;2023-05-15T13:57:41;6.83;;;2.70;;
56201;SDS011;42117;50.360;3.508;2023-05-15T14:00:08;3.40;;;3.10;;
56201;SDS011;42117;50.360;3.508;2023-05-15T14:02:36;4.33;;;3.20;;
56201;SDS011;42117;50.360;3.508;2023-05-15T14:05:02;3.28;;;2.75;;
56201;SDS011;42117;50.360;3.508;2023-05-15T14:07:29;6.13;;;3.03;;
56201;SDS011;42117;50.360;3.508;2023-05-15T14:09:56;4.03;;;3.50;;
56201;SDS011;42117;50.360;3.508;2023-05-15T14:12:22;4.18;;;3.78;;
56201;SDS011;42117;50.360;3.508;2023-05-15T14:14:48;7.95;;;3.58;;
56201;SDS011;42117;50.360;3.508;2023-05-15T14:17:14;7.97;;;3.22;;
56201;SDS011;42117;50.360;3.508;2023-05-15T14:19:41;5.13;;;3.28;;
56201;SDS011;42117;50.360;3.508;2023-05-15T14:22:07;4.28;;;3.45;;
56201;SDS011;42117;50.360;3.508;2023-05-15T14:24:33;5.47;;;2.95;;
56201;SDS011;42117;50.360;3.508;2023-05-15T14:26:59;7.50;;;3.37;;
56201;SDS011;42117;50.360;3.508;2023-05-15T14:29:25;5.00;;;2.80;;
56201;SDS011;42117;50.360;3.508;2023-05-15T14:31:52;9.10;;;4.17;;
56201;SDS011;42117;50.360;3.508;2023-05-15T14:34:18;9.52;;;3.30;;
56201;SDS011;42117;50.360;3.508;2023-05-15T14:36:44;9.80;;;3.20;;
56201;SDS011;42117;50.360;3.508;2023-05-15T14:39:10;5.63;;;3.10;;
56201;SDS011;42117;50.360;3.508;2023-05-15T14:41:36;6.55;;;3.67;;
56201;SDS011;42117;50.360;3.508;2023-05-15T14:44:02;5.32;;;3.47;;
56201;SDS011;42117;50.360;3.508;2023-05-15T14:46:28;8.00;;;3.50;;
56201;SDS011;42117;50.360;3.508;2023-05-15T14:48:54;5.95;;;3.33;;